sensor_id;sensor_type;location;lat;lon;timestamp;temperature;humidity
44037;DHT22;62488;-37.670;-63.532;2023-02-02T00:01:49;20.80;99.90
44037;DHT22;62488;-37.670;-63.532;2023-02-02T00:04:21;20.80;99.90
44037;DHT22;62488;-37.670;-63.532;2023-02-02T00:06:49;20.80;99.90
44037;DHT22;62488;-37.670;-63.532;2023-02-02T00:09:17;20.70;99.90
44037;DHT22;62488;-37.670;-63.532;2023-02-02T00:11:46;20.60;99.90
44037;DHT22;62488;-37.670;-63.532;2023-02-02T00:14:14;20.60;99.90
44037;DHT22;62488;-37.670;-63.532;2023-02-02T00:16:48;20.50;99.90
44037;DHT22;62488;-37.670;-63.532;2023-02-02T00:21:47;20.40;99.90
44037;DHT22;62488;-37.670;-63.532;2023-02-02T00:24:16;20.40;99.90
44037;DHT22;62488;-37.670;-63.532;2023-02-02T00:26:45;20.30;99.90
44037;DHT22;62488;-37.670;-63.532;2023-02-02T00:29:16;20.30;99.90
44037;DHT22;62488;-37.670;-63.532;2023-02-02T00:31:43;20.20;99.90
44037;DHT22;62488;-37.670;-63.532;2023-02-02T00:34:12;20.10;99.90
44037;DHT22;62488;-37.670;-63.532;2023-02-02T00:36:39;20.10;99.90
44037;DHT22;62488;-37.670;-63.532;2023-02-02T00:39:07;20.10;99.90
44037;DHT22;62488;-37.670;-63.532;2023-02-02T00:41:34;20.10;99.90
44037;DHT22;62488;-37.670;-63.532;2023-02-02T00:44:01;20.00;99.90
44037;DHT22;62488;-37.670;-63.532;2023-02-02T00:46:47;20.00;99.90
44037;DHT22;62488;-37.670;-63.532;2023-02-02T00:49:13;19.90;99.90
44037;DHT22;62488;-37.670;-63.532;2023-02-02T00:51:40;19.80;99.90
44037;DHT22;62488;-37.670;-63.532;2023-02-02T00:54:07;19.80;99.90
44037;DHT22;62488;-37.670;-63.532;2023-02-02T00:56:34;19.80;99.90
44037;DHT22;62488;-37.670;-63.532;2023-02-02T00:59:01;19.80;99.90
44037;DHT22;62488;-37.670;-63.532;2023-02-02T01:01:28;19.80;99.90
44037;DHT22;62488;-37.670;-63.532;2023-02-02T01:03:55;19.70;99.90
44037;DHT22;62488;-37.670;-63.532;2023-02-02T01:06:22;19.70;99.90
44037;DHT22;62488;-37.670;-63.532;2023-02-02T01:08:50;19.60;99.90
44037;DHT22;62488;-37.670;-63.532;2023-02-02T01:11:17;19.70;99.90
44037;DHT22;62488;-37.670;-63.532;2023-02-02T01:13:44;19.60;99.90
44037;DHT22;62488;-37.670;-63.532;2023-02-02T01:16:11;19.60;99.90
44037;DHT22;62488;-37.670;-63.532;2023-02-02T01:18:38;19.60;99.90
44037;DHT22;62488;-37.670;-63.532;2023-02-02T01:21:08;19.60;99.90
44037;DHT22;62488;-37.670;-63.532;2023-02-02T01:23:36;19.60;99.90
44037;DHT22;62488;-37.670;-63.532;2023-02-02T01:26:06;19.60;99.90
44037;DHT22;62488;-37.670;-63.532;2023-02-02T01:28:33;19.60;99.90
44037;DHT22;62488;-37.670;-63.532;2023-02-02T01:31:07;19.60;99.90
44037;DHT22;62488;-37.670;-63.532;2023-02-02T01:33:34;19.60;99.90
44037;DHT22;62488;-37.670;-63.532;2023-02-02T01:36:05;19.60;99.90
44037;DHT22;62488;-37.670;-63.532;2023-02-02T01:38:33;19.60;99.90
44037;DHT22;62488;-37.670;-63.532;2023-02-02T01:41:00;19.60;99.90
44037;DHT22;62488;-37.670;-63.532;2023-02-02T01:46:12;19.50;99.90
44037;DHT22;62488;-37.670;-63.532;2023-02-02T01:48:43;19.40;99.90
44037;DHT22;62488;-37.670;-63.532;2023-02-02T01:51:16;19.40;99.90
44037;DHT22;62488;-37.670;-63.532;2023-02-02T01:53:46;19.40;99.90
44037;DHT22;62488;-37.670;-63.532;2023-02-02T01:56:17;19.30;99.90
44037;DHT22;62488;-37.670;-63.532;2023-02-02T01:58:45;19.30;99.90
44037;DHT22;62488;-37.670;-63.532;2023-02-02T02:01:13;19.30;99.90
44037;DHT22;62488;-37.670;-63.532;2023-02-02T02:03:40;19.30;99.90
44037;DHT22;62488;-37.670;-63.532;2023-02-02T02:06:10;19.20;99.90
44037;DHT22;62488;-37.670;-63.532;2023-02-02T02:08:59;19.20;99.90
44037;DHT22;62488;-37.670;-63.532;2023-02-02T02:11:31;19.30;99.90
44037;DHT22;62488;-37.670;-63.532;2023-02-02T02:14:01;19.30;99.90
44037;DHT22;62488;-37.670;-63.532;2023-02-02T02:17:09;19.30;99.90
44037;DHT22;62488;-37.670;-63.532;2023-02-02T02:20:23;19.30;99.90
44037;DHT22;62488;-37.670;-63.532;2023-02-02T02:30:26;19.30;99.90
44037;DHT22;62488;-37.670;-63.532;2023-02-02T02:35:36;19.20;99.90
44037;DHT22;62488;-37.670;-63.532;2023-02-02T02:40:54;19.10;99.90
44037;DHT22;62488;-37.670;-63.532;2023-02-02T02:43:35;19.00;99.90
44037;DHT22;62488;-37.670;-63.532;2023-02-02T02:46:04;19.00;99.90
44037;DHT22;62488;-37.670;-63.532;2023-02-02T02:48:32;19.00;99.90
44037;DHT22;62488;-37.670;-63.532;2023-02-02T02:51:54;18.90;99.90
44037;DHT22;62488;-37.670;-63.532;2023-02-02T02:53:56;18.90;99.90
44037;DHT22;62488;-37.670;-63.532;2023-02-02T02:56:34;19.00;99.90
44037;DHT22;62488;-37.670;-63.532;2023-02-02T02:59:16;19.00;99.90
44037;DHT22;62488;-37.670;-63.532;2023-02-02T03:02:23;19.10;99.90
44037;DHT22;62488;-37.670;-63.532;2023-02-02T03:05:22;18.90;99.90
44037;DHT22;62488;-37.670;-63.532;2023-02-02T03:10:56;18.90;99.90
44037;DHT22;62488;-37.670;-63.532;2023-02-02T03:13:25;19.00;99.90
44037;DHT22;62488;-37.670;-63.532;2023-02-02T03:15:53;19.00;99.90
44037;DHT22;62488;-37.670;-63.532;2023-02-02T03:18:22;18.90;99.90
44037;DHT22;62488;-37.670;-63.532;2023-02-02T03:20:50;18.90;99.90
44037;DHT22;62488;-37.670;-63.532;2023-02-02T03:23:17;18.90;99.90
44037;DHT22;62488;-37.670;-63.532;2023-02-02T03:25:45;19.00;99.90
44037;DHT22;62488;-37.670;-63.532;2023-02-02T03:28:13;19.00;99.90
44037;DHT22;62488;-37.670;-63.532;2023-02-02T03:30:41;19.00;99.90
44037;DHT22;62488;-37.670;-63.532;2023-02-02T03:33:09;19.00;99.90
44037;DHT22;62488;-37.670;-63.532;2023-02-02T03:35:37;18.90;99.90
44037;DHT22;62488;-37.670;-63.532;2023-02-02T03:38:04;18.90;99.90
44037;DHT22;62488;-37.670;-63.532;2023-02-02T03:40:31;18.80;99.90
44037;DHT22;62488;-37.670;-63.532;2023-02-02T03:42:58;18.80;99.90
44037;DHT22;62488;-37.670;-63.532;2023-02-02T03:45:27;18.80;99.90
44037;DHT22;62488;-37.670;-63.532;2023-02-02T03:47:53;18.80;99.90
44037;DHT22;62488;-37.670;-63.532;2023-02-02T03:50:20;18.70;99.90
44037;DHT22;62488;-37.670;-63.532;2023-02-02T03:52:47;18.60;99.90
44037;DHT22;62488;-37.670;-63.532;2023-02-02T03:55:14;18.50;99.90
44037;DHT22;62488;-37.670;-63.532;2023-02-02T03:57:41;18.50;99.90
44037;DHT22;62488;-37.670;-63.532;2023-02-02T04:00:09;18.50;99.90
44037;DHT22;62488;-37.670;-63.532;2023-02-02T04:02:36;18.60;99.90
44037;DHT22;62488;-37.670;-63.532;2023-02-02T04:05:04;18.50;99.90
44037;DHT22;62488;-37.670;-63.532;2023-02-02T04:07:31;18.50;99.90
44037;DHT22;62488;-37.670;-63.532;2023-02-02T04:09:58;18.40;99.90
44037;DHT22;62488;-37.670;-63.532;2023-02-02T04:12:25;18.40;99.90
44037;DHT22;62488;-37.670;-63.532;2023-02-02T04:14:52;18.50;99.90
44037;DHT22;62488;-37.670;-63.532;2023-02-02T04:17:19;18.50;99.90
44037;DHT22;62488;-37.670;-63.532;2023-02-02T04:19:46;18.50;99.90
44037;DHT22;62488;-37.670;-63.532;2023-02-02T04:22:13;18.40;99.90
44037;DHT22;62488;-37.670;-63.532;2023-02-02T04:24:40;18.40;99.90
44037;DHT22;62488;-37.670;-63.532;2023-02-02T04:27:07;18.40;99.90
44037;DHT22;62488;-37.670;-63.532;2023-02-02T04:29:34;18.40;99.90
44037;DHT22;62488;-37.670;-63.532;2023-02-02T04:32:01;18.30;99.90
44037;DHT22;62488;-37.670;-63.532;2023-02-02T04:34:28;18.20;99.90
44037;DHT22;62488;-37.670;-63.532;2023-02-02T04:36:55;18.20;99.90
44037;DHT22;62488;-37.670;-63.532;2023-02-02T04:39:22;18.20;99.90
44037;DHT22;62488;-37.670;-63.532;2023-02-02T04:41:49;18.10;99.90
44037;DHT22;62488;-37.670;-63.532;2023-02-02T04:44:16;18.10;99.90
44037;DHT22;62488;-37.670;-63.532;2023-02-02T04:46:43;18.00;99.90
44037;DHT22;62488;-37.670;-63.532;2023-02-02T04:49:11;18.00;99.90
44037;DHT22;62488;-37.670;-63.532;2023-02-02T04:51:39;18.00;99.90
44037;DHT22;62488;-37.670;-63.532;2023-02-02T04:54:06;18.00;99.90
44037;DHT22;62488;-37.670;-63.532;2023-02-02T04:56:33;18.00;99.90
44037;DHT22;62488;-37.670;-63.532;2023-02-02T04:59:00;18.00;99.90
44037;DHT22;62488;-37.670;-63.532;2023-02-02T05:01:27;17.90;99.90
44037;DHT22;62488;-37.670;-63.532;2023-02-02T05:03:56;17.90;99.90
44037;DHT22;62488;-37.670;-63.532;2023-02-02T05:06:23;17.90;99.90
44037;DHT22;62488;-37.670;-63.532;2023-02-02T05:08:51;17.80;99.90
44037;DHT22;62488;-37.670;-63.532;2023-02-02T05:11:20;17.80;99.90
44037;DHT22;62488;-37.670;-63.532;2023-02-02T05:13:49;17.80;99.90
44037;DHT22;62488;-37.670;-63.532;2023-02-02T05:16:17;17.70;99.90
44037;DHT22;62488;-37.670;-63.532;2023-02-02T05:18:55;17.80;99.90
44037;DHT22;62488;-37.670;-63.532;2023-02-02T05:21:23;17.60;99.90
44037;DHT22;62488;-37.670;-63.532;2023-02-02T05:23:50;17.70;99.90
44037;DHT22;62488;-37.670;-63.532;2023-02-02T05:26:21;17.60;99.90
44037;DHT22;62488;-37.670;-63.532;2023-02-02T05:28:48;17.60;99.90
44037;DHT22;62488;-37.670;-63.532;2023-02-02T05:31:15;17.50;99.90
44037;DHT22;62488;-37.670;-63.532;2023-02-02T05:33:43;17.60;99.90
44037;DHT22;62488;-37.670;-63.532;2023-02-02T05:36:10;17.70;99.90
44037;DHT22;62488;-37.670;-63.532;2023-02-02T05:38:37;17.70;99.90
44037;DHT22;62488;-37.670;-63.532;2023-02-02T05:41:04;17.80;99.90
44037;DHT22;62488;-37.670;-63.532;2023-02-02T05:43:32;17.90;99.90
44037;DHT22;62488;-37.670;-63.532;2023-02-02T05:45:59;18.00;99.90
44037;DHT22;62488;-37.670;-63.532;2023-02-02T05:48:27;18.00;99.90
44037;DHT22;62488;-37.670;-63.532;2023-02-02T05:51:16;18.10;99.90
44037;DHT22;62488;-37.670;-63.532;2023-02-02T05:53:46;18.20;99.90
44037;DHT22;62488;-37.670;-63.532;2023-02-02T05:56:13;18.20;99.90
44037;DHT22;62488;-37.670;-63.532;2023-02-02T05:58:41;18.30;99.90
44037;DHT22;62488;-37.670;-63.532;2023-02-02T06:01:09;18.30;99.90
44037;DHT22;62488;-37.670;-63.532;2023-02-02T06:03:36;18.20;99.90
44037;DHT22;62488;-37.670;-63.532;2023-02-02T06:06:04;18.20;99.90
44037;DHT22;62488;-37.670;-63.532;2023-02-02T06:08:31;18.20;99.90
44037;DHT22;62488;-37.670;-63.532;2023-02-02T06:10:57;18.20;99.90
44037;DHT22;62488;-37.670;-63.532;2023-02-02T06:13:24;18.20;99.90
44037;DHT22;62488;-37.670;-63.532;2023-02-02T06:15:51;18.10;99.90
44037;DHT22;62488;-37.670;-63.532;2023-02-02T06:18:18;18.10;99.90
44037;DHT22;62488;-37.670;-63.532;2023-02-02T06:20:45;18.20;99.90
44037;DHT22;62488;-37.670;-63.532;2023-02-02T06:23:13;18.20;99.90
44037;DHT22;62488;-37.670;-63.532;2023-02-02T06:25:40;18.20;99.90
44037;DHT22;62488;-37.670;-63.532;2023-02-02T06:28:07;18.10;99.90
44037;DHT22;62488;-37.670;-63.532;2023-02-02T06:30:34;18.10;99.90
44037;DHT22;62488;-37.670;-63.532;2023-02-02T06:33:01;18.10;99.90
44037;DHT22;62488;-37.670;-63.532;2023-02-02T06:35:28;18.20;99.90
44037;DHT22;62488;-37.670;-63.532;2023-02-02T06:37:56;18.30;99.90
44037;DHT22;62488;-37.670;-63.532;2023-02-02T06:40:23;18.30;99.90
44037;DHT22;62488;-37.670;-63.532;2023-02-02T06:42:59;18.30;99.90
44037;DHT22;62488;-37.670;-63.532;2023-02-02T06:45:27;18.40;99.90
44037;DHT22;62488;-37.670;-63.532;2023-02-02T06:47:58;18.30;99.90
44037;DHT22;62488;-37.670;-63.532;2023-02-02T06:50:29;18.30;99.90
44037;DHT22;62488;-37.670;-63.532;2023-02-02T06:52:56;18.40;99.90
44037;DHT22;62488;-37.670;-63.532;2023-02-02T06:55:23;18.30;99.90
44037;DHT22;62488;-37.670;-63.532;2023-02-02T06:57:58;18.30;99.90
44037;DHT22;62488;-37.670;-63.532;2023-02-02T07:00:27;18.30;99.90
44037;DHT22;62488;-37.670;-63.532;2023-02-02T07:02:54;18.30;99.90
44037;DHT22;62488;-37.670;-63.532;2023-02-02T07:05:21;18.30;99.90
44037;DHT22;62488;-37.670;-63.532;2023-02-02T07:07:51;18.40;99.90
44037;DHT22;62488;-37.670;-63.532;2023-02-02T07:10:18;18.40;99.90
44037;DHT22;62488;-37.670;-63.532;2023-02-02T07:12:45;18.40;99.90
44037;DHT22;62488;-37.670;-63.532;2023-02-02T07:15:12;18.40;99.90
44037;DHT22;62488;-37.670;-63.532;2023-02-02T07:17:39;18.40;99.90
44037;DHT22;62488;-37.670;-63.532;2023-02-02T07:20:06;18.40;99.90
44037;DHT22;62488;-37.670;-63.532;2023-02-02T07:22:34;18.40;99.90
44037;DHT22;62488;-37.670;-63.532;2023-02-02T07:25:03;18.50;99.90
44037;DHT22;62488;-37.670;-63.532;2023-02-02T07:27:30;18.50;99.90
44037;DHT22;62488;-37.670;-63.532;2023-02-02T07:29:58;18.50;99.90
44037;DHT22;62488;-37.670;-63.532;2023-02-02T07:32:25;18.50;99.90
44037;DHT22;62488;-37.670;-63.532;2023-02-02T07:34:53;18.60;99.90
44037;DHT22;62488;-37.670;-63.532;2023-02-02T07:37:20;18.60;99.90
44037;DHT22;62488;-37.670;-63.532;2023-02-02T07:39:46;18.60;99.90
44037;DHT22;62488;-37.670;-63.532;2023-02-02T07:42:13;18.60;99.90
44037;DHT22;62488;-37.670;-63.532;2023-02-02T07:44:40;18.60;99.90
44037;DHT22;62488;-37.670;-63.532;2023-02-02T07:47:07;18.60;99.90
44037;DHT22;62488;-37.670;-63.532;2023-02-02T07:49:34;18.60;99.90
44037;DHT22;62488;-37.670;-63.532;2023-02-02T07:52:01;18.50;99.90
44037;DHT22;62488;-37.670;-63.532;2023-02-02T07:54:28;18.50;99.90
44037;DHT22;62488;-37.670;-63.532;2023-02-02T07:56:57;18.40;99.90
44037;DHT22;62488;-37.670;-63.532;2023-02-02T07:59:26;18.30;99.90
44037;DHT22;62488;-37.670;-63.532;2023-02-02T08:01:53;18.20;99.90
44037;DHT22;62488;-37.670;-63.532;2023-02-02T08:04:20;18.20;99.90
44037;DHT22;62488;-37.670;-63.532;2023-02-02T08:06:47;18.10;99.90
44037;DHT22;62488;-37.670;-63.532;2023-02-02T08:09:14;18.00;99.90
44037;DHT22;62488;-37.670;-63.532;2023-02-02T08:11:43;18.00;99.90
44037;DHT22;62488;-37.670;-63.532;2023-02-02T08:14:12;18.00;99.90
44037;DHT22;62488;-37.670;-63.532;2023-02-02T08:16:39;17.90;99.90
44037;DHT22;62488;-37.670;-63.532;2023-02-02T08:19:06;17.80;99.90
44037;DHT22;62488;-37.670;-63.532;2023-02-02T08:21:33;17.80;99.90
44037;DHT22;62488;-37.670;-63.532;2023-02-02T08:24:01;17.70;99.90
44037;DHT22;62488;-37.670;-63.532;2023-02-02T08:26:30;17.70;99.90
44037;DHT22;62488;-37.670;-63.532;2023-02-02T08:28:59;17.60;99.90
44037;DHT22;62488;-37.670;-63.532;2023-02-02T08:31:29;17.60;99.90
44037;DHT22;62488;-37.670;-63.532;2023-02-02T08:33:56;17.60;99.90
44037;DHT22;62488;-37.670;-63.532;2023-02-02T08:36:25;17.60;99.90
44037;DHT22;62488;-37.670;-63.532;2023-02-02T08:38:52;17.60;99.90
44037;DHT22;62488;-37.670;-63.532;2023-02-02T08:41:22;17.60;99.90
44037;DHT22;62488;-37.670;-63.532;2023-02-02T08:43:50;17.50;99.90
44037;DHT22;62488;-37.670;-63.532;2023-02-02T08:46:18;17.50;99.90
44037;DHT22;62488;-37.670;-63.532;2023-02-02T08:48:46;17.50;99.90
44037;DHT22;62488;-37.670;-63.532;2023-02-02T08:51:18;17.50;99.90
44037;DHT22;62488;-37.670;-63.532;2023-02-02T08:53:46;17.50;99.90
44037;DHT22;62488;-37.670;-63.532;2023-02-02T08:56:15;17.50;99.90
44037;DHT22;62488;-37.670;-63.532;2023-02-02T08:58:53;17.50;99.90
44037;DHT22;62488;-37.670;-63.532;2023-02-02T09:01:25;17.50;99.90
44037;DHT22;62488;-37.670;-63.532;2023-02-02T09:04:01;17.50;99.90
44037;DHT22;62488;-37.670;-63.532;2023-02-02T09:06:37;17.50;99.90
44037;DHT22;62488;-37.670;-63.532;2023-02-02T09:09:06;17.60;99.90
44037;DHT22;62488;-37.670;-63.532;2023-02-02T09:11:34;17.60;99.90
44037;DHT22;62488;-37.670;-63.532;2023-02-02T09:14:01;17.60;99.90
44037;DHT22;62488;-37.670;-63.532;2023-02-02T09:16:32;17.50;99.90
44037;DHT22;62488;-37.670;-63.532;2023-02-02T09:18:59;17.50;99.90
44037;DHT22;62488;-37.670;-63.532;2023-02-02T09:21:26;17.50;99.90
44037;DHT22;62488;-37.670;-63.532;2023-02-02T09:23:53;17.50;99.90
44037;DHT22;62488;-37.670;-63.532;2023-02-02T09:28:52;17.50;99.90
44037;DHT22;62488;-37.670;-63.532;2023-02-02T09:31:21;17.50;99.90
44037;DHT22;62488;-37.670;-63.532;2023-02-02T09:33:48;17.40;99.90
44037;DHT22;62488;-37.670;-63.532;2023-02-02T09:36:17;17.30;99.90
44037;DHT22;62488;-37.670;-63.532;2023-02-02T09:38:48;17.30;99.90
44037;DHT22;62488;-37.670;-63.532;2023-02-02T09:41:44;17.50;99.90
44037;DHT22;62488;-37.670;-63.532;2023-02-02T09:44:54;17.60;99.90
44037;DHT22;62488;-37.670;-63.532;2023-02-02T09:50:19;17.50;99.90
44037;DHT22;62488;-37.670;-63.532;2023-02-02T09:52:54;17.60;99.90
44037;DHT22;62488;-37.670;-63.532;2023-02-02T09:57:52;17.60;99.90
44037;DHT22;62488;-37.670;-63.532;2023-02-02T10:00:37;17.70;99.90
44037;DHT22;62488;-37.670;-63.532;2023-02-02T10:03:31;17.80;99.90
44037;DHT22;62488;-37.670;-63.532;2023-02-02T10:06:22;17.80;99.90
44037;DHT22;62488;-37.670;-63.532;2023-02-02T10:12:32;18.00;99.90
44037;DHT22;62488;-37.670;-63.532;2023-02-02T10:15:28;18.20;99.90
44037;DHT22;62488;-37.670;-63.532;2023-02-02T10:18:01;18.30;99.90
44037;DHT22;62488;-37.670;-63.532;2023-02-02T10:20:56;18.40;99.90
44037;DHT22;62488;-37.670;-63.532;2023-02-02T10:23:31;18.50;99.90
44037;DHT22;62488;-37.670;-63.532;2023-02-02T10:29:07;18.80;99.90
44037;DHT22;62488;-37.670;-63.532;2023-02-02T10:31:54;18.90;99.90
44037;DHT22;62488;-37.670;-63.532;2023-02-02T10:46:10;19.70;99.90
44037;DHT22;62488;-37.670;-63.532;2023-02-02T10:48:40;20.00;99.90
44037;DHT22;62488;-37.670;-63.532;2023-02-02T10:53:51;20.30;99.90
44037;DHT22;62488;-37.670;-63.532;2023-02-02T10:56:30;20.40;99.90
44037;DHT22;62488;-37.670;-63.532;2023-02-02T10:59:35;20.50;99.90
44037;DHT22;62488;-37.670;-63.532;2023-02-02T11:02:12;20.70;99.90
44037;DHT22;62488;-37.670;-63.532;2023-02-02T11:04:39;20.80;99.90
44037;DHT22;62488;-37.670;-63.532;2023-02-02T11:07:41;20.90;99.90
44037;DHT22;62488;-37.670;-63.532;2023-02-02T11:10:09;20.90;99.90
44037;DHT22;62488;-37.670;-63.532;2023-02-02T11:12:41;21.00;99.90
44037;DHT22;62488;-37.670;-63.532;2023-02-02T11:15:29;21.20;99.90
44037;DHT22;62488;-37.670;-63.532;2023-02-02T11:18:13;21.40;99.90
44037;DHT22;62488;-37.670;-63.532;2023-02-02T11:20:41;21.50;99.90
44037;DHT22;62488;-37.670;-63.532;2023-02-02T11:23:17;21.50;99.90
44037;DHT22;62488;-37.670;-63.532;2023-02-02T11:25:44;21.70;99.90
44037;DHT22;62488;-37.670;-63.532;2023-02-02T11:28:23;21.80;99.90
44037;DHT22;62488;-37.670;-63.532;2023-02-02T11:30:52;21.90;99.90
44037;DHT22;62488;-37.670;-63.532;2023-02-02T11:33:34;22.20;99.90
44037;DHT22;62488;-37.670;-63.532;2023-02-02T11:36:16;22.50;99.90
44037;DHT22;62488;-37.670;-63.532;2023-02-02T11:38:44;22.70;99.90
44037;DHT22;62488;-37.670;-63.532;2023-02-02T11:41:11;22.60;99.90
44037;DHT22;62488;-37.670;-63.532;2023-02-02T11:43:48;22.80;99.90
44037;DHT22;62488;-37.670;-63.532;2023-02-02T11:46:25;23.20;99.90
44037;DHT22;62488;-37.670;-63.532;2023-02-02T11:49:03;23.30;99.90
44037;DHT22;62488;-37.670;-63.532;2023-02-02T11:51:33;23.30;99.90
44037;DHT22;62488;-37.670;-63.532;2023-02-02T11:54:03;23.40;99.90
44037;DHT22;62488;-37.670;-63.532;2023-02-02T11:56:37;23.30;99.90
44037;DHT22;62488;-37.670;-63.532;2023-02-02T11:59:04;23.90;99.90
44037;DHT22;62488;-37.670;-63.532;2023-02-02T12:01:38;24.20;99.90
44037;DHT22;62488;-37.670;-63.532;2023-02-02T12:06:44;24.30;99.90
44037;DHT22;62488;-37.670;-63.532;2023-02-02T12:09:14;24.30;99.90
44037;DHT22;62488;-37.670;-63.532;2023-02-02T12:18:05;24.70;99.90
44037;DHT22;62488;-37.670;-63.532;2023-02-02T12:26:10;25.00;99.90
44037;DHT22;62488;-37.670;-63.532;2023-02-02T12:29:22;24.80;99.90
44037;DHT22;62488;-37.670;-63.532;2023-02-02T12:31:47;24.50;99.90
44037;DHT22;62488;-37.670;-63.532;2023-02-02T12:45:26;26.00;99.90
44037;DHT22;62488;-37.670;-63.532;2023-02-02T12:59:09;24.60;99.90
44037;DHT22;62488;-37.670;-63.532;2023-02-02T13:01:51;25.40;99.90
44037;DHT22;62488;-37.670;-63.532;2023-02-02T13:07:50;26.30;99.90
44037;DHT22;62488;-37.670;-63.532;2023-02-02T13:13:24;26.80;99.90
44037;DHT22;62488;-37.670;-63.532;2023-02-02T13:16:06;26.60;99.90
44037;DHT22;62488;-37.670;-63.532;2023-02-02T13:18:45;27.00;99.90
44037;DHT22;62488;-37.670;-63.532;2023-02-02T13:21:18;26.90;99.90
44037;DHT22;62488;-37.670;-63.532;2023-02-02T13:23:52;26.80;99.90
44037;DHT22;62488;-37.670;-63.532;2023-02-02T13:26:27;27.10;99.90
44037;DHT22;62488;-37.670;-63.532;2023-02-02T13:34:35;27.70;98.80
44037;DHT22;62488;-37.670;-63.532;2023-02-02T13:37:34;27.60;98.80
44037;DHT22;62488;-37.670;-63.532;2023-02-02T13:40:05;27.50;99.90
44037;DHT22;62488;-37.670;-63.532;2023-02-02T13:48:36;28.00;99.60
44037;DHT22;62488;-37.670;-63.532;2023-02-02T13:59:58;28.50;97.70
44037;DHT22;62488;-37.670;-63.532;2023-02-02T14:02:46;28.50;97.70
44037;DHT22;62488;-37.670;-63.532;2023-02-02T14:05:40;28.50;96.20
44037;DHT22;62488;-37.670;-63.532;2023-02-02T14:08:17;28.50;96.10
44037;DHT22;62488;-37.670;-63.532;2023-02-02T14:10:57;28.20;97.10
44037;DHT22;62488;-37.670;-63.532;2023-02-02T14:19:45;28.70;93.90
44037;DHT22;62488;-37.670;-63.532;2023-02-02T14:22:19;29.10;95.60
44037;DHT22;62488;-37.670;-63.532;2023-02-02T14:25:46;29.20;93.10
44037;DHT22;62488;-37.670;-63.532;2023-02-02T14:27:58;29.40;94.40
44037;DHT22;62488;-37.670;-63.532;2023-02-02T14:30:31;29.20;94.60
44037;DHT22;62488;-37.670;-63.532;2023-02-02T14:33:37;29.60;93.20
44037;DHT22;62488;-37.670;-63.532;2023-02-02T14:36:10;29.00;93.30
44037;DHT22;62488;-37.670;-63.532;2023-02-02T14:38:52;29.20;94.00
44037;DHT22;62488;-37.670;-63.532;2023-02-02T14:44:08;29.70;93.60
44037;DHT22;62488;-37.670;-63.532;2023-02-02T14:46:39;29.60;91.10
44037;DHT22;62488;-37.670;-63.532;2023-02-02T14:49:22;30.10;91.10
44037;DHT22;62488;-37.670;-63.532;2023-02-02T14:51:53;30.20;89.10
44037;DHT22;62488;-37.670;-63.532;2023-02-02T14:54:24;30.10;81.10
44037;DHT22;62488;-37.670;-63.532;2023-02-02T14:56:59;29.90;83.20
44037;DHT22;62488;-37.670;-63.532;2023-02-02T14:59:33;30.10;84.80
44037;DHT22;62488;-37.670;-63.532;2023-02-02T15:04:36;29.90;82.60
44037;DHT22;62488;-37.670;-63.532;2023-02-02T15:09:53;30.10;83.90
44037;DHT22;62488;-37.670;-63.532;2023-02-02T15:12:50;30.30;78.70
44037;DHT22;62488;-37.670;-63.532;2023-02-02T15:15:20;30.50;77.40
44037;DHT22;62488;-37.670;-63.532;2023-02-02T15:20:47;30.60;75.30
44037;DHT22;62488;-37.670;-63.532;2023-02-02T15:23:32;30.40;73.50
44037;DHT22;62488;-37.670;-63.532;2023-02-02T15:26:18;29.90;75.80
44037;DHT22;62488;-37.670;-63.532;2023-02-02T15:28:52;29.90;77.20
44037;DHT22;62488;-37.670;-63.532;2023-02-02T15:34:41;30.20;77.20
44037;DHT22;62488;-37.670;-63.532;2023-02-02T15:37:15;30.20;75.30
44037;DHT22;62488;-37.670;-63.532;2023-02-02T15:39:50;30.50;74.50
44037;DHT22;62488;-37.670;-63.532;2023-02-02T15:45:02;30.30;73.10
44037;DHT22;62488;-37.670;-63.532;2023-02-02T15:47:36;30.70;73.60
44037;DHT22;62488;-37.670;-63.532;2023-02-02T15:50:17;30.80;71.80
44037;DHT22;62488;-37.670;-63.532;2023-02-02T15:52:47;30.60;71.90
44037;DHT22;62488;-37.670;-63.532;2023-02-02T15:55:44;30.40;70.70
44037;DHT22;62488;-37.670;-63.532;2023-02-02T16:01:13;30.90;66.00
44037;DHT22;62488;-37.670;-63.532;2023-02-02T16:06:37;30.70;67.70
44037;DHT22;62488;-37.670;-63.532;2023-02-02T16:09:05;30.60;64.20
44037;DHT22;62488;-37.670;-63.532;2023-02-02T16:11:32;30.70;63.30
44037;DHT22;62488;-37.670;-63.532;2023-02-02T16:14:03;30.50;62.80
44037;DHT22;62488;-37.670;-63.532;2023-02-02T16:16:32;30.90;62.80
44037;DHT22;62488;-37.670;-63.532;2023-02-02T16:19:13;31.40;65.60
44037;DHT22;62488;-37.670;-63.532;2023-02-02T16:24:32;31.00;59.40
44037;DHT22;62488;-37.670;-63.532;2023-02-02T16:27:04;31.10;60.10
44037;DHT22;62488;-37.670;-63.532;2023-02-02T16:29:32;30.90;63.10
44037;DHT22;62488;-37.670;-63.532;2023-02-02T16:32:00;30.90;61.40
44037;DHT22;62488;-37.670;-63.532;2023-02-02T16:39:43;31.30;62.60
44037;DHT22;62488;-37.670;-63.532;2023-02-02T16:42:29;31.50;60.80
44037;DHT22;62488;-37.670;-63.532;2023-02-02T16:44:59;31.80;60.40
44037;DHT22;62488;-37.670;-63.532;2023-02-02T16:50:39;31.70;61.50
44037;DHT22;62488;-37.670;-63.532;2023-02-02T16:52:59;31.70;62.30
44037;DHT22;62488;-37.670;-63.532;2023-02-02T16:55:29;31.60;58.80
44037;DHT22;62488;-37.670;-63.532;2023-02-02T16:57:57;31.30;60.40
44037;DHT22;62488;-37.670;-63.532;2023-02-02T17:00:27;31.20;61.50
44037;DHT22;62488;-37.670;-63.532;2023-02-02T17:03:07;31.20;62.50
44037;DHT22;62488;-37.670;-63.532;2023-02-02T17:08:12;31.80;63.40
44037;DHT22;62488;-37.670;-63.532;2023-02-02T17:10:42;31.90;61.00
44037;DHT22;62488;-37.670;-63.532;2023-02-02T17:15:56;31.90;61.30
44037;DHT22;62488;-37.670;-63.532;2023-02-02T17:18:24;32.00;60.20
44037;DHT22;62488;-37.670;-63.532;2023-02-02T17:20:54;31.70;61.70
44037;DHT22;62488;-37.670;-63.532;2023-02-02T17:23:27;31.80;60.80
44037;DHT22;62488;-37.670;-63.532;2023-02-02T17:25:55;31.80;57.70
44037;DHT22;62488;-37.670;-63.532;2023-02-02T17:28:24;31.70;59.70
44037;DHT22;62488;-37.670;-63.532;2023-02-02T17:31:04;31.60;59.70
44037;DHT22;62488;-37.670;-63.532;2023-02-02T17:33:33;31.50;58.00
44037;DHT22;62488;-37.670;-63.532;2023-02-02T17:36:01;31.70;62.50
44037;DHT22;62488;-37.670;-63.532;2023-02-02T17:38:28;31.60;53.70
44037;DHT22;62488;-37.670;-63.532;2023-02-02T17:41:00;31.90;56.40
44037;DHT22;62488;-37.670;-63.532;2023-02-02T17:43:28;31.80;56.90
44037;DHT22;62488;-37.670;-63.532;2023-02-02T17:45:56;31.90;57.90
44037;DHT22;62488;-37.670;-63.532;2023-02-02T17:48:23;31.70;58.90
44037;DHT22;62488;-37.670;-63.532;2023-02-02T17:50:50;31.80;58.90
44037;DHT22;62488;-37.670;-63.532;2023-02-02T17:53:19;31.70;57.30
44037;DHT22;62488;-37.670;-63.532;2023-02-02T17:55:52;31.70;57.40